sensor_id;sensor_type;location;lat;lon;timestamp;pressure;altitude;pressure_sealevel;temperature;humidity
63019;BME280;49105;46.046;10.760;2023-04-28T00:00:23;95947.97;;;9.93;56.56
63019;BME280;49105;46.046;10.760;2023-04-28T00:02:48;95948.25;;;9.97;55.88
63019;BME280;49105;46.046;10.760;2023-04-28T00:05:14;95939.53;;;9.96;56.51
63019;BME280;49105;46.046;10.760;2023-04-28T00:07:39;95934.75;;;9.88;56.75
63019;BME280;49105;46.046;10.760;2023-04-28T00:10:05;95943.47;;;9.93;56.45
63019;BME280;49105;46.046;10.760;2023-04-28T00:12:30;95944.81;;;9.96;56.30
63019;BME280;49105;46.046;10.760;2023-04-28T00:14:56;95949.75;;;9.67;57.17
63019;BME280;49105;46.046;10.760;2023-04-28T00:17:21;95945.19;;;9.52;57.97
63019;BME280;49105;46.046;10.760;2023-04-28T00:19:46;95957.88;;;9.55;57.69
63019;BME280;49105;46.046;10.760;2023-04-28T00:22:11;95957.69;;;9.72;57.06
63019;BME280;49105;46.046;10.760;2023-04-28T00:24:37;95946.13;;;9.93;56.52
63019;BME280;49105;46.046;10.760;2023-04-28T00:27:02;95954.06;;;9.93;56.57
63019;BME280;49105;46.046;10.760;2023-04-28T00:29:28;95954.81;;;9.84;57.51
63019;BME280;49105;46.046;10.760;2023-04-28T00:31:53;95963.06;;;9.98;57.40
63019;BME280;49105;46.046;10.760;2023-04-28T00:34:18;95958.59;;;10.18;56.73
63019;BME280;49105;46.046;10.760;2023-04-28T00:36:44;95954.13;;;10.24;56.77
63019;BME280;49105;46.046;10.760;2023-04-28T00:39:09;95954.09;;;10.09;57.20
63019;BME280;49105;46.046;10.760;2023-04-28T00:41:35;95950.34;;;9.94;56.75
63019;BME280;49105;46.046;10.760;2023-04-28T00:44:00;95942.66;;;9.83;57.81
63019;BME280;49105;46.046;10.760;2023-04-28T00:46:26;95952.97;;;9.79;57.30
63019;BME280;49105;46.046;10.760;2023-04-28T00:48:53;95954.56;;;9.90;57.18
63019;BME280;49105;46.046;10.760;2023-04-28T00:51:18;95957.25;;;10.06;57.69
63019;BME280;49105;46.046;10.760;2023-04-28T00:53:45;95953.84;;;10.15;57.50
63019;BME280;49105;46.046;10.760;2023-04-28T00:56:10;95949.38;;;10.21;57.24
63019;BME280;49105;46.046;10.760;2023-04-28T00:58:36;95948.31;;;10.22;57.39
63019;BME280;49105;46.046;10.760;2023-04-28T01:01:04;95946.44;;;10.23;57.33
63019;BME280;49105;46.046;10.760;2023-04-28T01:03:31;95948.88;;;10.29;56.68
63019;BME280;49105;46.046;10.760;2023-04-28T01:05:58;95951.28;;;10.41;57.03
63019;BME280;49105;46.046;10.760;2023-04-28T01:08:26;95935.59;;;10.24;57.42
63019;BME280;49105;46.046;10.760;2023-04-28T01:10:52;95937.69;;;10.07;57.78
63019;BME280;49105;46.046;10.760;2023-04-28T01:13:17;95925.50;;;9.95;57.52
63019;BME280;49105;46.046;10.760;2023-04-28T01:15:42;95925.75;;;9.99;57.91
63019;BME280;49105;46.046;10.760;2023-04-28T01:18:07;95923.13;;;9.99;57.49
63019;BME280;49105;46.046;10.760;2023-04-28T01:20:33;95916.78;;;9.95;57.94
63019;BME280;49105;46.046;10.760;2023-04-28T01:22:58;95927.34;;;9.95;57.34
63019;BME280;49105;46.046;10.760;2023-04-28T01:25:23;95934.25;;;9.96;57.56
63019;BME280;49105;46.046;10.760;2023-04-28T01:27:49;95924.44;;;9.91;57.95
63019;BME280;49105;46.046;10.760;2023-04-28T01:30:14;95923.34;;;9.87;57.70
63019;BME280;49105;46.046;10.760;2023-04-28T01:32:39;95938.13;;;9.73;57.70
63019;BME280;49105;46.046;10.760;2023-04-28T01:35:05;95951.28;;;9.58;58.14
63019;BME280;49105;46.046;10.760;2023-04-28T01:37:30;95950.75;;;9.51;58.90
63019;BME280;49105;46.046;10.760;2023-04-28T01:39:55;95965.53;;;9.52;58.84
63019;BME280;49105;46.046;10.760;2023-04-28T01:42:21;95978.25;;;9.60;58.74
63019;BME280;49105;46.046;10.760;2023-04-28T01:44:46;95972.47;;;9.68;58.50
63019;BME280;49105;46.046;10.760;2023-04-28T01:47:11;95971.16;;;9.70;57.97
63019;BME280;49105;46.046;10.760;2023-04-28T01:49:37;95966.13;;;9.74;57.72
63019;BME280;49105;46.046;10.760;2023-04-28T01:52:02;95963.53;;;9.79;58.23
63019;BME280;49105;46.046;10.760;2023-04-28T01:54:27;95966.41;;;9.78;57.86
63019;BME280;49105;46.046;10.760;2023-04-28T01:56:53;95959.25;;;9.68;58.34
63019;BME280;49105;46.046;10.760;2023-04-28T01:59:18;95952.34;;;9.62;58.15
63019;BME280;49105;46.046;10.760;2023-04-28T02:01:44;95956.28;;;9.54;58.51
63019;BME280;49105;46.046;10.760;2023-04-28T02:04:09;95953.91;;;9.53;58.48
63019;BME280;49105;46.046;10.760;2023-04-28T02:06:35;95960.00;;;9.58;58.86
63019;BME280;49105;46.046;10.760;2023-04-28T02:09:00;95957.34;;;9.58;58.76
63019;BME280;49105;46.046;10.760;2023-04-28T02:11:25;95958.44;;;9.62;58.86
63019;BME280;49105;46.046;10.760;2023-04-28T02:13:51;95952.63;;;9.65;58.21
63019;BME280;49105;46.046;10.760;2023-04-28T02:16:16;95947.06;;;9.62;58.23
63019;BME280;49105;46.046;10.760;2023-04-28T02:18:41;95949.19;;;9.60;58.85
63019;BME280;49105;46.046;10.760;2023-04-28T02:21:10;95957.41;;;9.63;57.96
63019;BME280;49105;46.046;10.760;2023-04-28T02:23:36;95956.81;;;9.51;58.15
63019;BME280;49105;46.046;10.760;2023-04-28T02:26:01;95962.31;;;9.44;59.05
63019;BME280;49105;46.046;10.760;2023-04-28T02:28:28;95964.38;;;9.32;58.95
63019;BME280;49105;46.046;10.760;2023-04-28T02:31:01;95970.19;;;9.34;59.45
63019;BME280;49105;46.046;10.760;2023-04-28T02:33:27;95966.25;;;9.42;58.88
63019;BME280;49105;46.046;10.760;2023-04-28T02:35:57;95963.91;;;9.45;58.83
63019;BME280;49105;46.046;10.760;2023-04-28T02:38:22;95961.31;;;9.51;59.37
63019;BME280;49105;46.046;10.760;2023-04-28T02:40:48;95963.91;;;9.45;59.10
63019;BME280;49105;46.046;10.760;2023-04-28T02:43:13;95971.31;;;9.43;58.90
63019;BME280;49105;46.046;10.760;2023-04-28T02:45:38;95969.97;;;9.46;59.20
63019;BME280;49105;46.046;10.760;2023-04-28T02:48:04;95969.72;;;9.42;59.47
63019;BME280;49105;46.046;10.760;2023-04-28T02:50:29;95971.31;;;9.43;59.13
63019;BME280;49105;46.046;10.760;2023-04-28T02:52:55;95965.75;;;9.45;59.15
63019;BME280;49105;46.046;10.760;2023-04-28T02:55:20;95968.94;;;9.47;58.85
63019;BME280;49105;46.046;10.760;2023-04-28T02:57:48;95970.25;;;9.44;59.38
63019;BME280;49105;46.046;10.760;2023-04-28T03:00:13;95964.44;;;9.42;59.56
63019;BME280;49105;46.046;10.760;2023-04-28T03:02:39;95962.31;;;9.44;59.38
63019;BME280;49105;46.046;10.760;2023-04-28T03:05:04;95959.66;;;9.39;58.96
63019;BME280;49105;46.046;10.760;2023-04-28T03:07:29;95961.44;;;9.29;59.94
63019;BME280;49105;46.046;10.760;2023-04-28T03:09:55;95962.78;;;9.31;59.48
63019;BME280;49105;46.046;10.760;2023-04-28T03:12:20;95954.84;;;9.31;59.85
63019;BME280;49105;46.046;10.760;2023-04-28T03:14:45;95956.19;;;9.34;59.01
63019;BME280;49105;46.046;10.760;2023-04-28T03:17:11;95958.59;;;9.35;59.05
63019;BME280;49105;46.046;10.760;2023-04-28T03:19:38;95948.78;;;9.31;59.40
63019;BME280;49105;46.046;10.760;2023-04-28T03:22:03;95942.94;;;9.29;60.01
63019;BME280;49105;46.046;10.760;2023-04-28T03:24:28;95945.91;;;9.37;59.21
63019;BME280;49105;46.046;10.760;2023-04-28T03:26:54;95947.47;;;9.33;59.36
63019;BME280;49105;46.046;10.760;2023-04-28T03:29:19;95946.66;;;9.28;59.64
63019;BME280;49105;46.046;10.760;2023-04-28T03:31:45;95942.16;;;9.28;59.80
63019;BME280;49105;46.046;10.760;2023-04-28T03:34:10;95950.56;;;9.20;59.45
63019;BME280;49105;46.046;10.760;2023-04-28T03:36:36;95944.97;;;9.11;59.91
63019;BME280;49105;46.046;10.760;2023-04-28T03:39:01;95936.25;;;9.11;60.35
63019;BME280;49105;46.046;10.760;2023-04-28T03:41:26;95942.59;;;9.10;60.53
63019;BME280;49105;46.046;10.760;2023-04-28T03:43:52;95942.84;;;9.08;60.80
63019;BME280;49105;46.046;10.760;2023-04-28T03:46:17;95946.25;;;9.09;59.96
63019;BME280;49105;46.046;10.760;2023-04-28T03:48:42;95941.53;;;9.11;60.51
63019;BME280;49105;46.046;10.760;2023-04-28T03:51:08;95949.34;;;8.95;60.89
63019;BME280;49105;46.046;10.760;2023-04-28T03:53:33;95956.59;;;8.73;60.63
63019;BME280;49105;46.046;10.760;2023-04-28T03:55:58;95952.59;;;8.70;61.46
63019;BME280;49105;46.046;10.760;2023-04-28T03:58:23;95963.00;;;8.82;60.92
63019;BME280;49105;46.046;10.760;2023-04-28T04:00:49;95966.00;;;8.96;60.62
63019;BME280;49105;46.046;10.760;2023-04-28T04:03:14;95964.75;;;9.09;60.35
63019;BME280;49105;46.046;10.760;2023-04-28T04:05:39;95964.28;;;9.17;60.47
63019;BME280;49105;46.046;10.760;2023-04-28T04:08:05;95960.59;;;9.18;60.46
63019;BME280;49105;46.046;10.760;2023-04-28T04:10:30;95949.47;;;9.16;60.44
63019;BME280;49105;46.046;10.760;2023-04-28T04:12:55;95942.66;;;9.20;60.73
63019;BME280;49105;46.046;10.760;2023-04-28T04:15:21;95934.75;;;9.25;60.52
63019;BME280;49105;46.046;10.760;2023-04-28T04:17:46;95942.66;;;9.25;60.69
63019;BME280;49105;46.046;10.760;2023-04-28T04:20:11;95951.34;;;9.20;60.76
63019;BME280;49105;46.046;10.760;2023-04-28T04:22:37;95955.03;;;9.14;60.32
63019;BME280;49105;46.046;10.760;2023-04-28T04:25:02;95955.53;;;9.11;60.48
63019;BME280;49105;46.046;10.760;2023-04-28T04:27:27;95957.59;;;9.04;61.04
63019;BME280;49105;46.046;10.760;2023-04-28T04:29:52;95955.72;;;9.00;61.28
63019;BME280;49105;46.046;10.760;2023-04-28T04:32:18;95963.91;;;8.98;61.24
63019;BME280;49105;46.046;10.760;2023-04-28T04:34:43;95953.84;;;8.95;61.31
63019;BME280;49105;46.046;10.760;2023-04-28T04:37:09;95950.69;;;8.98;62.15
63019;BME280;49105;46.046;10.760;2023-04-28T04:39:34;95953.09;;;9.05;61.85
63019;BME280;49105;46.046;10.760;2023-04-28T04:41:59;95951.63;;;9.19;62.12
63019;BME280;49105;46.046;10.760;2023-04-28T04:44:25;95957.91;;;9.13;61.54
63019;BME280;49105;46.046;10.760;2023-04-28T04:46:50;95954.44;;;9.02;61.65
63019;BME280;49105;46.046;10.760;2023-04-28T04:49:16;95953.09;;;9.05;62.06
63019;BME280;49105;46.046;10.760;2023-04-28T04:51:41;95955.84;;;9.20;61.96
63019;BME280;49105;46.046;10.760;2023-04-28T04:54:07;95962.00;;;9.31;61.29
63019;BME280;49105;46.046;10.760;2023-04-28T04:56:32;95961.75;;;9.37;61.51
63019;BME280;49105;46.046;10.760;2023-04-28T04:58:57;95959.66;;;9.39;61.45
63019;BME280;49105;46.046;10.760;2023-04-28T05:01:22;95963.91;;;9.45;61.21
63019;BME280;49105;46.046;10.760;2023-04-28T05:03:48;95956.25;;;9.49;61.00
63019;BME280;49105;46.046;10.760;2023-04-28T05:06:13;95953.91;;;9.53;60.52
63019;BME280;49105;46.046;10.760;2023-04-28T05:08:38;95961.34;;;9.61;60.38
63019;BME280;49105;46.046;10.760;2023-04-28T05:11:04;95957.63;;;9.62;60.27
63019;BME280;49105;46.046;10.760;2023-04-28T05:13:29;95952.34;;;9.62;60.23
63019;BME280;49105;46.046;10.760;2023-04-28T05:15:54;95951.56;;;9.61;60.97
63019;BME280;49105;46.046;10.760;2023-04-28T05:18:20;95946.84;;;9.68;60.25
63019;BME280;49105;46.046;10.760;2023-04-28T05:20:45;95949.75;;;9.72;60.32
63019;BME280;49105;46.046;10.760;2023-04-28T05:23:10;95956.63;;;9.78;60.89
63019;BME280;49105;46.046;10.760;2023-04-28T05:25:36;95946.06;;;9.78;60.09
63019;BME280;49105;46.046;10.760;2023-04-28T05:28:01;95944.50;;;9.82;60.24
63019;BME280;49105;46.046;10.760;2023-04-28T05:30:31;95949.56;;;9.89;60.01
63019;BME280;49105;46.046;10.760;2023-04-28T05:32:56;95959.09;;;10.00;59.92
63019;BME280;49105;46.046;10.760;2023-04-28T05:35:22;95955.69;;;10.10;60.03
63019;BME280;49105;46.046;10.760;2023-04-28T05:37:47;95957.81;;;10.13;60.42
63019;BME280;49105;46.046;10.760;2023-04-28T05:40:12;95957.53;;;10.09;60.06
63019;BME280;49105;46.046;10.760;2023-04-28T05:42:38;95956.19;;;10.02;60.95
63019;BME280;49105;46.046;10.760;2023-04-28T05:45:04;95960.41;;;9.98;61.23
63019;BME280;49105;46.046;10.760;2023-04-28T05:47:29;95961.22;;;9.98;61.34
63019;BME280;49105;46.046;10.760;2023-04-28T05:49:55;95953.31;;;10.08;60.73
63019;BME280;49105;46.046;10.760;2023-04-28T05:52:20;95970.78;;;10.14;60.48
63019;BME280;49105;46.046;10.760;2023-04-28T05:54:45;95966.28;;;10.15;60.58
63019;BME280;49105;46.046;10.760;2023-04-28T05:57:11;95961.25;;;10.18;61.03
63019;BME280;49105;46.046;10.760;2023-04-28T05:59:36;95964.69;;;10.24;60.97
63019;BME280;49105;46.046;10.760;2023-04-28T06:02:01;95960.97;;;10.20;60.92
63019;BME280;49105;46.046;10.760;2023-04-28T06:04:26;95965.53;;;10.25;60.53
63019;BME280;49105;46.046;10.760;2023-04-28T06:06:52;95965.78;;;10.28;60.57
63019;BME280;49105;46.046;10.760;2023-04-28T06:09:17;95962.91;;;10.35;61.02
63019;BME280;49105;46.046;10.760;2023-04-28T06:11:42;95962.63;;;10.36;60.51
63019;BME280;49105;46.046;10.760;2023-04-28T06:14:08;95960.53;;;10.33;60.68
63019;BME280;49105;46.046;10.760;2023-04-28T06:16:33;95960.53;;;10.43;61.18
63019;BME280;49105;46.046;10.760;2023-04-28T06:18:58;95961.59;;;10.63;60.64
63019;BME280;49105;46.046;10.760;2023-04-28T06:21:24;95972.19;;;10.63;60.54
63019;BME280;49105;46.046;10.760;2023-04-28T06:23:51;95974.31;;;10.61;60.83
63019;BME280;49105;46.046;10.760;2023-04-28T06:26:16;95975.63;;;10.58;60.37
63019;BME280;49105;46.046;10.760;2023-04-28T06:28:41;95981.72;;;10.54;60.55
63019;BME280;49105;46.046;10.760;2023-04-28T06:31:07;95963.72;;;10.61;60.27
63019;BME280;49105;46.046;10.760;2023-04-28T06:33:32;95964.25;;;10.78;60.58
63019;BME280;49105;46.046;10.760;2023-04-28T06:35:58;95965.31;;;10.92;60.27
63019;BME280;49105;46.046;10.760;2023-04-28T06:38:23;95966.09;;;10.93;60.35
63019;BME280;49105;46.046;10.760;2023-04-28T06:40:48;95962.13;;;10.85;60.12
63019;BME280;49105;46.046;10.760;2023-04-28T06:43:13;95962.13;;;10.85;60.27
63019;BME280;49105;46.046;10.760;2023-04-28T06:45:39;95954.19;;;10.96;60.24
63019;BME280;49105;46.046;10.760;2023-04-28T06:48:04;95956.53;;;11.02;60.12
63019;BME280;49105;46.046;10.760;2023-04-28T06:50:30;95962.66;;;11.08;59.52
63019;BME280;49105;46.046;10.760;2023-04-28T06:52:55;95959.47;;;11.06;59.82
63019;BME280;49105;46.046;10.760;2023-04-28T06:55:21;95956.31;;;11.04;59.84
63019;BME280;49105;46.046;10.760;2023-04-28T06:57:47;95952.59;;;11.05;59.66
63019;BME280;49105;46.046;10.760;2023-04-28T07:00:13;95943.56;;;11.11;59.37
63019;BME280;49105;46.046;10.760;2023-04-28T07:02:38;95950.97;;;11.24;59.08
63019;BME280;49105;46.046;10.760;2023-04-28T07:05:03;95948.25;;;11.39;58.85
63019;BME280;49105;46.046;10.760;2023-04-28T07:07:29;95931.00;;;11.52;58.84
63019;BME280;49105;46.046;10.760;2023-04-28T07:09:54;95942.91;;;11.65;58.51
63019;BME280;49105;46.046;10.760;2023-04-28T07:12:20;95942.56;;;11.77;58.23
63019;BME280;49105;46.046;10.760;2023-04-28T07:14:45;95936.75;;;11.75;58.26
63019;BME280;49105;46.046;10.760;2023-04-28T07:17:11;95951.09;;;11.68;58.07
63019;BME280;49105;46.046;10.760;2023-04-28T07:19:36;95958.78;;;11.60;58.09
63019;BME280;49105;46.046;10.760;2023-04-28T07:22:01;95952.97;;;11.58;58.06
63019;BME280;49105;46.046;10.760;2023-04-28T07:24:26;95955.88;;;11.61;58.10
63019;BME280;49105;46.046;10.760;2023-04-28T07:26:52;95955.03;;;11.76;58.07
63019;BME280;49105;46.046;10.760;2023-04-28T07:29:17;95954.50;;;11.84;58.10
63019;BME280;49105;46.046;10.760;2023-04-28T07:31:43;95940.13;;;11.96;57.56
63019;BME280;49105;46.046;10.760;2023-04-28T07:34:08;95945.63;;;12.04;57.40
63019;BME280;49105;46.046;10.760;2023-04-28T07:36:33;95943.78;;;12.05;57.44
63019;BME280;49105;46.046;10.760;2023-04-28T07:38:59;95944.81;;;12.09;57.28
63019;BME280;49105;46.046;10.760;2023-04-28T07:41:25;95938.19;;;12.11;57.18
63019;BME280;49105;46.046;10.760;2023-04-28T07:43:51;95929.16;;;12.12;57.32
63019;BME280;49105;46.046;10.760;2023-04-28T07:46:17;95925.41;;;12.13;56.95
63019;BME280;49105;46.046;10.760;2023-04-28T07:48:42;95924.03;;;12.21;56.98
63019;BME280;49105;46.046;10.760;2023-04-28T07:51:07;95915.50;;;12.29;56.87
63019;BME280;49105;46.046;10.760;2023-04-28T07:53:32;95918.66;;;12.36;56.57
63019;BME280;49105;46.046;10.760;2023-04-28T07:55:58;95908.28;;;12.40;56.40
63019;BME280;49105;46.046;10.760;2023-04-28T07:58:23;95901.66;;;12.37;56.23
63019;BME280;49105;46.046;10.760;2023-04-28T08:00:48;95897.66;;;12.40;56.79
63019;BME280;49105;46.046;10.760;2023-04-28T08:03:14;95906.88;;;12.48;56.03
63019;BME280;49105;46.046;10.760;2023-04-28T08:05:39;95927.78;;;12.54;56.29
63019;BME280;49105;46.046;10.760;2023-04-28T08:08:05;95919.03;;;12.54;56.21
63019;BME280;49105;46.046;10.760;2023-04-28T08:10:30;95924.88;;;12.56;56.22
63019;BME280;49105;46.046;10.760;2023-04-28T08:12:56;95922.69;;;12.63;56.22
63019;BME280;49105;46.046;10.760;2023-04-28T08:15:21;95906.19;;;12.66;56.27
63019;BME280;49105;46.046;10.760;2023-04-28T08:17:46;95912.88;;;12.63;56.43
63019;BME280;49105;46.046;10.760;2023-04-28T08:20:12;95908.06;;;12.65;56.06
63019;BME280;49105;46.046;10.760;2023-04-28T08:22:39;95901.88;;;12.75;55.89
63019;BME280;49105;46.046;10.760;2023-04-28T08:25:04;95901.84;;;12.80;55.77
63019;BME280;49105;46.046;10.760;2023-04-28T08:27:30;95899.91;;;12.86;55.83
63019;BME280;49105;46.046;10.760;2023-04-28T08:29:55;95891.81;;;13.01;56.13
63019;BME280;49105;46.046;10.760;2023-04-28T08:32:21;95887.69;;;13.14;55.33
63019;BME280;49105;46.046;10.760;2023-04-28T08:34:46;95883.63;;;13.22;55.55
63019;BME280;49105;46.046;10.760;2023-04-28T08:37:11;95880.81;;;13.37;55.53
63019;BME280;49105;46.046;10.760;2023-04-28T08:39:37;95882.28;;;13.48;54.79
63019;BME280;49105;46.046;10.760;2023-04-28T08:42:02;95879.28;;;13.55;54.33
63019;BME280;49105;46.046;10.760;2023-04-28T08:44:37;95873.88;;;13.60;54.24
63019;BME280;49105;46.046;10.760;2023-04-28T08:47:04;95867.44;;;13.66;54.25
63019;BME280;49105;46.046;10.760;2023-04-28T08:49:34;95872.16;;;13.69;54.11
63019;BME280;49105;46.046;10.760;2023-04-28T08:52:01;95868.88;;;13.77;54.04
63019;BME280;49105;46.046;10.760;2023-04-28T08:54:29;95867.09;;;13.92;54.08
63019;BME280;49105;46.046;10.760;2023-04-28T08:56:55;95864.34;;;13.97;53.49
63019;BME280;49105;46.046;10.760;2023-04-28T08:59:21;95870.34;;;14.07;53.80
63019;BME280;49105;46.046;10.760;2023-04-28T09:01:49;95871.97;;;14.22;53.60
63019;BME280;49105;46.046;10.760;2023-04-28T09:04:18;95868.22;;;14.23;53.30
63019;BME280;49105;46.046;10.760;2023-04-28T09:06:43;95874.94;;;14.21;53.01
63019;BME280;49105;46.046;10.760;2023-04-28T09:09:29;95868.22;;;14.23;53.22
63019;BME280;49105;46.046;10.760;2023-04-28T09:12:01;95869.81;;;14.24;52.78
63019;BME280;49105;46.046;10.760;2023-04-28T09:14:30;95863.09;;;14.27;53.24
63019;BME280;49105;46.046;10.760;2023-04-28T09:16:57;95859.50;;;14.36;52.88
63019;BME280;49105;46.046;10.760;2023-04-28T09:19:22;95852.78;;;14.39;52.75
63019;BME280;49105;46.046;10.760;2023-04-28T09:21:51;95857.03;;;14.40;52.73
63019;BME280;49105;46.046;10.760;2023-04-28T09:26:51;95848.91;;;14.50;52.81
63019;BME280;49105;46.046;10.760;2023-04-28T09:29:17;95836.72;;;14.63;52.89
63019;BME280;49105;46.046;10.760;2023-04-28T09:31:42;95825.28;;;14.76;52.45
63019;BME280;49105;46.046;10.760;2023-04-28T09:34:08;95818.13;;;14.91;51.86
63019;BME280;49105;46.046;10.760;2023-04-28T09:36:33;95815.13;;;15.06;51.58
63019;BME280;49105;46.046;10.760;2023-04-28T09:38:59;95812.19;;;15.21;51.44
63019;BME280;49105;46.046;10.760;2023-04-28T09:41:43;95815.72;;;15.30;51.02
63019;BME280;49105;46.046;10.760;2023-04-28T09:44:16;95807.03;;;15.38;50.41
63019;BME280;49105;46.046;10.760;2023-04-28T09:46:43;95804.28;;;15.44;49.42
63019;BME280;49105;46.046;10.760;2023-04-28T09:49:09;95808.41;;;15.50;48.46
63019;BME280;49105;46.046;10.760;2023-04-28T09:51:34;95808.19;;;15.60;48.09
63019;BME280;49105;46.046;10.760;2023-04-28T09:54:00;95813.34;;;15.70;48.09
63019;BME280;49105;46.046;10.760;2023-04-28T09:56:27;95818.06;;;15.73;47.18
63019;BME280;49105;46.046;10.760;2023-04-28T09:58:53;95806.50;;;15.78;46.74
63019;BME280;49105;46.046;10.760;2023-04-28T10:01:20;95804.41;;;15.88;46.70
63019;BME280;49105;46.046;10.760;2023-04-28T10:03:46;95809.31;;;15.95;46.24
63019;BME280;49105;46.046;10.760;2023-04-28T10:06:13;95805.00;;;16.08;46.54
63019;BME280;49105;46.046;10.760;2023-04-28T10:08:38;95795.19;;;16.17;46.47
63019;BME280;49105;46.046;10.760;2023-04-28T10:11:04;95786.25;;;16.22;46.10
63019;BME280;49105;46.046;10.760;2023-04-28T10:13:29;95792.56;;;16.26;45.73
63019;BME280;49105;46.046;10.760;2023-04-28T10:15:56;95771.31;;;16.21;45.08
63019;BME280;49105;46.046;10.760;2023-04-28T10:18:22;95762.09;;;16.27;45.22
63019;BME280;49105;46.046;10.760;2023-04-28T10:20:48;95764.50;;;16.37;45.41
63019;BME280;49105;46.046;10.760;2023-04-28T10:26:12;95760.91;;;16.42;44.53
63019;BME280;49105;46.046;10.760;2023-04-28T10:28:47;95748.66;;;16.41;44.50
63019;BME280;49105;46.046;10.760;2023-04-28T10:31:14;95754.03;;;16.49;44.77
63019;BME280;49105;46.046;10.760;2023-04-28T10:33:39;95759.56;;;16.53;44.76
63019;BME280;49105;46.046;10.760;2023-04-28T10:36:05;95759.75;;;16.56;44.54
63019;BME280;49105;46.046;10.760;2023-04-28T10:38:31;95755.00;;;16.53;44.60
63019;BME280;49105;46.046;10.760;2023-04-28T10:40:56;95757.09;;;16.65;44.77
63019;BME280;49105;46.046;10.760;2023-04-28T10:48:17;95748.16;;;17.09;45.14
63019;BME280;49105;46.046;10.760;2023-04-28T10:56:13;95750.41;;;17.16;43.89
63019;BME280;49105;46.046;10.760;2023-04-28T10:58:40;95730.91;;;17.24;43.67
63019;BME280;49105;46.046;10.760;2023-04-28T11:03:52;95731.38;;;17.52;43.82
63019;BME280;49105;46.046;10.760;2023-04-28T11:06:30;95727.81;;;17.57;43.79
63019;BME280;49105;46.046;10.760;2023-04-28T11:19:24;95696.13;;;17.68;42.87
63019;BME280;49105;46.046;10.760;2023-04-28T11:21:50;95705.75;;;17.77;42.45
63019;BME280;49105;46.046;10.760;2023-04-28T11:24:15;95704.19;;;17.76;41.98
63019;BME280;49105;46.046;10.760;2023-04-28T11:26:41;95696.78;;;17.91;42.67
63019;BME280;49105;46.046;10.760;2023-04-28T11:29:08;95701.78;;;18.01;42.67
63019;BME280;49105;46.046;10.760;2023-04-28T11:31:33;95699.06;;;18.18;42.58
63019;BME280;49105;46.046;10.760;2023-04-28T11:34:10;95700.47;;;18.33;42.47
63019;BME280;49105;46.046;10.760;2023-04-28T11:36:39;95692.53;;;18.45;42.76
63019;BME280;49105;46.046;10.760;2023-04-28T11:39:05;95688.44;;;18.48;42.22
63019;BME280;49105;46.046;10.760;2023-04-28T11:41:32;95685.88;;;18.51;42.52
63019;BME280;49105;46.046;10.760;2023-04-28T11:43:58;95679.41;;;18.61;42.46
63019;BME280;49105;46.046;10.760;2023-04-28T11:46:24;95673.50;;;18.68;42.67
63019;BME280;49105;46.046;10.760;2023-04-28T11:48:59;95676.69;;;18.70;42.54
63019;BME280;49105;46.046;10.760;2023-04-28T11:51:32;95668.69;;;18.61;41.43
63019;BME280;49105;46.046;10.760;2023-04-28T11:53:58;95670.63;;;18.52;41.61
63019;BME280;49105;46.046;10.760;2023-04-28T11:56:24;95667.94;;;18.52;41.57
63019;BME280;49105;46.046;10.760;2023-04-28T11:59:00;95671.94;;;18.67;41.58
63019;BME280;49105;46.046;10.760;2023-04-28T12:01:25;95669.91;;;18.72;41.49
63019;BME280;49105;46.046;10.760;2023-04-28T12:03:51;95669.91;;;18.72;41.37
63019;BME280;49105;46.046;10.760;2023-04-28T12:06:16;95665.34;;;18.64;41.67
63019;BME280;49105;46.046;10.760;2023-04-28T12:08:44;95662.00;;;18.67;41.52
63019;BME280;49105;46.046;10.760;2023-04-28T12:11:10;95659.31;;;18.67;41.93
63019;BME280;49105;46.046;10.760;2023-04-28T12:13:37;95659.50;;;18.62;41.65
63019;BME280;49105;46.046;10.760;2023-04-28T12:16:03;95664.69;;;18.67;41.55
63019;BME280;49105;46.046;10.760;2023-04-28T12:18:35;95667.53;;;18.71;41.07
63019;BME280;49105;46.046;10.760;2023-04-28T12:21:00;95656.66;;;18.67;40.61
63019;BME280;49105;46.046;10.760;2023-04-28T12:25:55;95658.22;;;18.77;40.43
63019;BME280;49105;46.046;10.760;2023-04-28T12:28:21;95654.75;;;18.76;40.37
63019;BME280;49105;46.046;10.760;2023-04-28T12:30:47;95659.88;;;18.90;40.47
63019;BME280;49105;46.046;10.760;2023-04-28T12:33:22;95653.91;;;18.84;39.99
63019;BME280;49105;46.046;10.760;2023-04-28T12:35:48;95659.88;;;18.90;40.19
63019;BME280;49105;46.046;10.760;2023-04-28T12:38:14;95652.53;;;18.78;39.67
63019;BME280;49105;46.046;10.760;2023-04-28T12:40:40;95648.59;;;18.76;39.80
63019;BME280;49105;46.046;10.760;2023-04-28T12:43:06;95643.56;;;18.74;39.35
63019;BME280;49105;46.046;10.760;2023-04-28T12:45:31;95644.34;;;18.75;39.08
63019;BME280;49105;46.046;10.760;2023-04-28T12:47:57;95658.16;;;18.86;39.40
63019;BME280;49105;46.046;10.760;2023-04-28T12:50:23;95658.75;;;18.91;39.46
63019;BME280;49105;46.046;10.760;2023-04-28T12:52:49;95647.38;;;18.94;39.50
63019;BME280;49105;46.046;10.760;2023-04-28T12:55:15;95639.19;;;18.91;39.02
63019;BME280;49105;46.046;10.760;2023-04-28T12:57:40;95638.03;;;19.00;39.01
63019;BME280;49105;46.046;10.760;2023-04-28T13:00:06;95634.13;;;18.98;39.05
63019;BME280;49105;46.046;10.760;2023-04-28T13:02:32;95630.13;;;19.04;39.12
63019;BME280;49105;46.046;10.760;2023-04-28T13:04:57;95626.25;;;18.93;38.39
63019;BME280;49105;46.046;10.760;2023-04-28T13:07:22;95632.84;;;18.95;38.39
63019;BME280;49105;46.046;10.760;2023-04-28T13:09:48;95631.78;;;18.88;38.34
63019;BME280;49105;46.046;10.760;2023-04-28T13:12:13;95631.53;;;18.80;38.53
63019;BME280;49105;46.046;10.760;2023-04-28T13:14:38;95625.00;;;18.90;38.46
63019;BME280;49105;46.046;10.760;2023-04-28T13:17:04;95615.66;;;18.96;38.11
63019;BME280;49105;46.046;10.760;2023-04-28T13:19:30;95616.19;;;19.11;38.25